Dades meteomassalio
Diari Summary for Gener 24, 2018 Units:  Metric    English   Both
« Previous Day
Next Day »
Diari Semanal Mensual Anual Personalitzat
  Maxima: Minima: Mijana:
Temperatura: -17.8 °C -17.4 °C -14.2 °C
Rosada: -17.8 °C -18.1 °C -15.7 °C
Humitat: Humidity % 63 % 83 %
Velocitat del vent: 0 km/h 0 km/h 1 km/h
Racha vent: 0 km/h - -
Vent:- - ENE
Pressio: 0 hPa 34774.2 hPa -
Pluja: 7.62 mm    
Historical Graphs
 
 
Tabular Data for Gener 24, 2018
Time Temperature Dew Point Pressure Wind Wind Speed Wind Gust Humidity Rainfall Rate (Hourly) solar Conditions
-17.8 °C -17.8 °C 0 hPa Calm     Humidity % 0 mm SolarRadiationWatts/m^2 W/m2 Conditions
00:07 -15.3 °C -16.2 °C 34933.4 hPa Calm     90 % 0 mm 0.0 W/m2 CLR
00:12 -15.3 °C -16.2 °C 34933.4 hPa Calm     90 % 0 mm 0.0 W/m2 CLR
00:17 -15.3 °C -16.2 °C 34933.4 hPa Calm     90 % 0 mm 0.0 W/m2 CLR
00:22 -15.3 °C -16.2 °C 34933.4 hPa Calm     90 % 0 mm 0.0 W/m2 CLR
00:27 -15.3 °C -16.2 °C 34933.4 hPa Calm     90 % 0 mm 0.0 W/m2 CLR
00:32 -15.3 °C -16.2 °C 34933.4 hPa Calm     90 % 0 mm 0.0 W/m2 CLR
00:37 -15.3 °C -16.2 °C 34933.4 hPa Calm     90 % 0 mm 0.0 W/m2 CLR
00:43 -15.3 °C -16.2 °C 34933.4 hPa Calm     90 % 0 mm 0.0 W/m2 CLR
00:48 -15.3 °C -16.2 °C 34933.4 hPa Calm     90 % 0 mm 0.0 W/m2 CLR
00:53 -15.3 °C -16.2 °C 34933.4 hPa Calm     90 % 0 mm 0.0 W/m2 CLR
00:58 -15.3 °C -16.2 °C 34933.4 hPa Calm     90 % 0 mm 0.0 W/m2 CLR
01:03 -15.3 °C -16.1 °C 34933.4 hPa Calm     91 % 0 mm 0.0 W/m2 CLR
01:08 -15.6 °C -16.3 °C 34923.2 hPa Calm     91 % 0 mm 0.0 W/m2 CLR
01:13 -15.6 °C -16.4 °C 34923.2 hPa Calm     90 % 0 mm 0.0 W/m2 CLR
01:18 -15.6 °C -16.3 °C 34923.2 hPa Calm     91 % 0 mm 0.0 W/m2 CLR
01:23 -15.6 °C -16.3 °C 34923.2 hPa Calm     91 % 0 mm 0.0 W/m2 CLR
01:28 -15.6 °C -16.4 °C 34923.2 hPa Calm     90 % 0 mm 0.0 W/m2 CLR
01:33 -15.9 °C -16.8 °C 34923.2 hPa Calm     90 % 0 mm 0.0 W/m2 CLR
01:38 -15.6 °C -16.4 °C 34923.2 hPa Calm     90 % 0 mm 0.0 W/m2 CLR
01:43 -15.6 °C -16.3 °C 34923.2 hPa Calm     91 % 0 mm 0.0 W/m2 CLR
01:48 -15.9 °C -16.7 °C 34923.2 hPa Calm     91 % 0 mm 0.0 W/m2 CLR
01:53 -15.9 °C -16.7 °C 34923.2 hPa Calm     91 % 0 mm 0.0 W/m2 CLR
01:58 -15.9 °C -16.7 °C 34923.2 hPa Calm     91 % 0 mm 0.0 W/m2 CLR
02:03 -15.9 °C -16.7 °C 34923.2 hPa Calm     91 % 0 mm 0.0 W/m2 CLR
02:08 -15.6 °C -16.3 °C 34923.2 hPa Calm     91 % 0 mm 0.0 W/m2 CLR
02:13 -15.6 °C -16.3 °C 34923.2 hPa Calm     91 % 0 mm 0.0 W/m2 CLR
02:18 -15.6 °C -16.3 °C 34923.2 hPa Calm     91 % 0 mm 0.0 W/m2 CLR
02:23 -15.6 °C -16.3 °C 34923.2 hPa Calm     91 % 0 mm 0.0 W/m2 CLR
02:28 -15.6 °C -16.3 °C 34923.2 hPa Calm     91 % 0 mm 0.0 W/m2 CLR
02:33 -15.9 °C -16.7 °C 34923.2 hPa Calm     91 % 0 mm 0.0 W/m2 CLR
02:38 -15.6 °C -16.3 °C 34923.2 hPa Calm     91 % 0 mm 0.0 W/m2 CLR
02:43 -15.9 °C -16.7 °C 34923.2 hPa Calm     91 % 0 mm 0.0 W/m2 CLR
02:53 -15.9 °C -16.7 °C 34909.7 hPa Calm     91 % 0 mm 0.0 W/m2 CLR
02:58 -15.9 °C -16.7 °C 34909.7 hPa Calm     91 % 0 mm 0.0 W/m2 CLR
03:03 -16.2 °C -17 °C 34909.7 hPa Calm     91 % 0 mm 0.0 W/m2 CLR
03:08 -16.2 °C -17 °C 34909.7 hPa Calm     91 % 0 mm 0.0 W/m2 CLR
03:13 -16.2 °C -17 °C 34909.7 hPa Calm     91 % 0 mm 0.0 W/m2 CLR
03:18 -16.2 °C -17 °C 34909.7 hPa Calm     91 % 0 mm 0.0 W/m2 CLR
03:23 -16.2 °C -17 °C 34909.7 hPa Calm     91 % 0 mm 0.0 W/m2 CLR
03:28 -16.2 °C -17 °C 34909.7 hPa Calm     91 % 0 mm 0.0 W/m2 CLR
03:38 -16.2 °C -17 °C 34909.7 hPa Calm     91 % 0 mm 0.0 W/m2 CLR
03:43 -16.2 °C -17 °C 34909.7 hPa Calm     91 % 0 mm 0.0 W/m2 CLR
03:48 -16.2 °C -17 °C 34909.7 hPa Calm     91 % 0 mm 0.0 W/m2 CLR
03:53 -16.2 °C -17 °C 34909.7 hPa Calm     91 % 0 mm 0.0 W/m2 CLR
03:58 -16.2 °C -17 °C 34909.7 hPa Calm     91 % 0 mm 0.0 W/m2 CLR
04:08 -16.6 °C -17.3 °C 34909.7 hPa Calm     91 % 0 mm 0.0 W/m2 CLR
04:10 -16.6 °C -17.3 °C 34909.7 hPa Calm     91 % 0 mm 0.0 W/m2 CLR
04:15 -16.6 °C -17.2 °C 34909.7 hPa Calm     92 % 0 mm 0.0 W/m2 CLR
04:25 -16.6 °C -17.2 °C 34909.7 hPa Calm     92 % 0 mm 0.0 W/m2 CLR
04:30 -16.6 °C -17.2 °C 34909.7 hPa Calm     92 % 0 mm 0.0 W/m2 CLR
04:35 -16.6 °C -17.2 °C 34899.5 hPa Calm     92 % 0 mm 0.0 W/m2 CLR
04:40 -16.6 °C -17.2 °C 34899.5 hPa Calm     92 % 0 mm 0.0 W/m2 CLR
04:45 -16.6 °C -17.2 °C 34899.5 hPa Calm     92 % 0 mm 0.0 W/m2 CLR
04:50 -16.6 °C -17.2 °C 34899.5 hPa Calm     92 % 0 mm 0.0 W/m2 CLR
04:55 -16.6 °C -17.2 °C 34899.5 hPa Calm     92 % 0 mm 0.0 W/m2 CLR
05:00 -16.6 °C -17.2 °C 34899.5 hPa Calm     92 % 0 mm 0.0 W/m2 CLR
05:05 -16.6 °C -17.2 °C 34899.5 hPa Calm     92 % 0 mm 0.0 W/m2 CLR
05:10 -16.6 °C -17.2 °C 34899.5 hPa Calm     92 % 0 mm 0.0 W/m2 CLR
05:15 -16.6 °C -17.2 °C 34899.5 hPa Calm     92 % 0 mm 0.0 W/m2 CLR
05:25 -16.6 °C -17.3 °C 34899.5 hPa Calm     91 % 0 mm 0.0 W/m2 CLR
05:30 -16.6 °C -17.2 °C 34899.5 hPa Calm     92 % 0 mm 0.0 W/m2 CLR
05:35 -16.6 °C -17.2 °C 34899.5 hPa Calm     92 % 0 mm 0.0 W/m2 CLR
05:40 -16.8 °C -17.5 °C 34899.5 hPa Calm     92 % 0 mm 0.0 W/m2 CLR
05:45 -16.8 °C -17.5 °C 34899.5 hPa Calm     92 % 0 mm 0.0 W/m2 CLR
05:50 -16.8 °C -17.5 °C 34899.5 hPa Calm     92 % 0 mm 0.0 W/m2 CLR
05:55 -16.8 °C -17.5 °C 34899.5 hPa Calm     92 % 0 mm 0.0 W/m2 CLR
06:05 -16.8 °C -17.5 °C 34899.5 hPa Calm     92 % 0 mm 0.0 W/m2 CLR
06:10 -16.8 °C -17.5 °C 34899.5 hPa Calm     92 % 0 mm 0.0 W/m2 CLR
06:15 -16.8 °C -17.5 °C 34899.5 hPa Calm     92 % 0 mm 0.0 W/m2 CLR
06:20 -16.8 °C -17.5 °C 34899.5 hPa Calm     92 % 0 mm 0.0 W/m2 CLR
06:25 -16.8 °C -17.5 °C 34909.7 hPa Calm     92 % 0 mm 0.0 W/m2 CLR
06:30 -17.2 °C -17.8 °C 34909.7 hPa Calm     92 % 0 mm 0.0 W/m2 CLR
06:35 -16.8 °C -17.5 °C 34909.7 hPa Calm     92 % 0 mm 0.0 W/m2 CLR
06:40 -16.8 °C -17.5 °C 34909.7 hPa Calm     92 % 0 mm 0.0 W/m2 CLR
06:45 -16.8 °C -17.5 °C 34909.7 hPa Calm     92 % 0 mm 0.0 W/m2 CLR
06:50 -16.8 °C -17.5 °C 34909.7 hPa Calm     92 % 0 mm 0.0 W/m2 CLR
06:55 -16.8 °C -17.5 °C 34909.7 hPa Calm     92 % 0 mm 0.0 W/m2 CLR
07:00 -16.8 °C -17.5 °C 34909.7 hPa Calm     92 % 0 mm 0.0 W/m2 CLR
07:05 -17.2 °C -17.8 °C 34909.7 hPa Calm     92 % 0 mm 0.0 W/m2 CLR
07:10 -17.2 °C -17.8 °C 34909.7 hPa Calm     92 % 0 mm 0.0 W/m2 CLR
07:15 -17.2 °C -17.8 °C 34909.7 hPa Calm     92 % 0 mm 0.0 W/m2 CLR
07:20 -17.2 °C -17.8 °C 34909.7 hPa Calm     92 % 0 mm 0.0 W/m2 CLR
07:25 -17.2 °C -17.8 °C 34909.7 hPa Calm     92 % 0 mm 0.0 W/m2 CLR
07:35 -17.2 °C -17.8 °C 34899.5 hPa Calm     92 % 0 mm 0.0 W/m2 CLR
07:40 -17.2 °C -17.8 °C 34899.5 hPa Calm     92 % 0 mm 0.0 W/m2 CLR
07:45 -17.2 °C -17.8 °C 34899.5 hPa Calm     92 % 0 mm 0.0 W/m2 CLR
07:50 -17.2 °C -17.8 °C 34899.5 hPa Calm     92 % 0 mm 0.0 W/m2 CLR
07:55 -17.2 °C -17.8 °C 34899.5 hPa Calm     92 % 0 mm 0.0 W/m2 CLR
08:00 -17.4 °C -18.1 °C 34899.5 hPa Calm     92 % 0 mm 0.0 W/m2 CLR
08:10 -17.2 °C -17.8 °C 34899.5 hPa Calm     92 % 0 mm 0.0 W/m2 OVC
08:15 -17.2 °C -17.8 °C 34909.7 hPa Calm     92 % 0 mm 0.0 W/m2 OVC
08:25 -17.2 °C -17.8 °C 34909.7 hPa Calm     92 % 0 mm 7.0 W/m2 BKN
08:30 -17.2 °C -17.8 °C 34909.7 hPa Calm     92 % 0 mm 11.0 W/m2 BKN
08:35 -17.2 °C -17.8 °C 34909.7 hPa Calm     92 % 0 mm 12.0 W/m2 BKN
08:40 -17.2 °C -17.7 °C 34909.7 hPa Calm     93 % 0 mm 16.0 W/m2 BKN
08:45 -17.2 °C -17.7 °C 34909.7 hPa Calm     93 % 0 mm 21.0 W/m2 BKN
09:00 -17.2 °C -17.7 °C 34909.7 hPa Calm     93 % 0 mm 46.0 W/m2 SCT
09:05 -17.2 °C -17.7 °C 34909.7 hPa Calm     93 % 0 mm 63.0 W/m2 SCT
09:11 -17.2 °C -17.7 °C 34909.7 hPa Calm     93 % 0 mm 74.0 W/m2 FEW
09:16 -17.2 °C -17.8 °C 34909.7 hPa Calm     92 % 0 mm 81.0 W/m2 FEW
09:21 -17.2 °C -17.8 °C 34909.7 hPa Calm     92 % 0 mm 93.0 W/m2 FEW
09:26 -16.8 °C -17.5 °C 34909.7 hPa Calm     92 % 0 mm 100.0 W/m2 CLR
09:31 -16.8 °C -17.5 °C 34909.7 hPa Calm     92 % 0 mm 97.0 W/m2 CLR
09:41 -16.6 °C -17.2 °C 34909.7 hPa Calm     92 % 0 mm 95.0 W/m2 CLR
09:46 -16.2 °C -17 °C 34923.2 hPa Calm     91 % 0 mm 167.0 W/m2 CLR
09:51 -16.2 °C -17 °C 34909.7 hPa Calm     91 % 0 mm 181.0 W/m2 CLR
09:56 -15.9 °C -16.7 °C 34909.7 hPa Calm     91 % 0 mm 134.0 W/m2 CLR
10:16 -15.3 °C -16.3 °C 34923.2 hPa Calm     88 % 0 mm 248.0 W/m2 CLR
10:21 -15.3 °C -16.4 °C 34909.7 hPa Calm     87 % 0 mm 265.0 W/m2 CLR
10:31 -14.7 °C -15.9 °C 34923.2 hPa Calm     86 % 0 mm 294.0 W/m2 CLR
10:36 -14.4 °C -15.8 °C 34909.7 hPa Calm     84 % 0 mm 306.0 W/m2 CLR
10:41 -14.4 °C -15.8 °C 34909.7 hPa Calm     84 % 0 mm 316.0 W/m2 CLR
10:46 -14.1 °C -15.6 °C 34909.7 hPa Calm     83 % 0 mm 323.0 W/m2 CLR
10:51 -14.1 °C -15.7 °C 34909.7 hPa Calm     82 % 0 mm 338.0 W/m2 CLR
10:56 -13.8 °C -15.6 °C 34909.7 hPa Calm     80 % 0 mm 350.0 W/m2 CLR
11:01 -13.8 °C -15.6 °C 34909.7 hPa Calm     80 % 0 mm 360.0 W/m2 CLR
11:06 -13.4 °C -15.2 °C 34909.7 hPa Calm     80 % 0 mm 371.0 W/m2 CLR
11:11 -13.2 °C -14.9 °C 34909.7 hPa Calm     80 % 0 mm 380.0 W/m2 CLR
11:16 -13.2 °C -15.1 °C 34909.7 hPa Calm     79 % 0 mm 390.0 W/m2 CLR
11:21 -12.8 °C -14.9 °C 34909.7 hPa Calm     77 % 0 mm 399.0 W/m2 CLR
11:26 -12.6 °C -14.7 °C 34909.7 hPa Calm     77 % 0 mm 410.0 W/m2 CLR
11:31 -12.2 °C -14.6 °C 34909.7 hPa Calm     75 % 0 mm 422.0 W/m2 CLR
11:36 -11.9 °C -14.2 °C 34909.7 hPa Calm     76 % 0 mm 432.0 W/m2 CLR
11:41 -11.9 °C -14.3 °C 34909.7 hPa Calm     75 % 0 mm 448.0 W/m2 CLR
11:46 -11.6 °C -14 °C 34899.5 hPa Calm     75 % 0 mm 443.0 W/m2 CLR
11:51 -11.6 °C -14 °C 34899.5 hPa Calm     75 % 0 mm 461.0 W/m2 CLR
11:56 -11.3 °C -13.7 °C 34899.5 hPa Calm     75 % 0 mm 338.0 W/m2 CLR
12:01 -11.3 °C -13.8 °C 34899.5 hPa ENE 9 km/h 9 km/h 74 % 0 mm 475.0 W/m2 CLR
12:06 -11.3 °C -13.7 °C 34889.3 hPa Calm     75 % 0 mm 522.0 W/m2 CLR
12:11 -11.3 °C -13.8 °C 34889.3 hPa ENE 3.1 km/h   74 % 0 mm 466.0 W/m2 CLR
12:16 -11 °C -13.5 °C 34889.3 hPa Calm     74 % 0 mm 313.0 W/m2 CLR
12:21 -11 °C -13.5 °C 34889.3 hPa ENE 6 km/h 6 km/h 74 % 0 mm 244.0 W/m2 CLR
12:26 -11 °C -13.5 °C 34889.3 hPa East 9 km/h 9 km/h 74 % 0 mm 313.0 W/m2 CLR
12:31 -11 °C -13.5 °C 34889.3 hPa ENE 6 km/h 6 km/h 74 % 0 mm 362.0 W/m2 CLR
12:36 -11 °C -13.5 °C 34889.3 hPa NE 6 km/h 6 km/h 74 % 0 mm 455.0 W/m2 CLR
12:41 -11 °C -13.4 °C 34889.3 hPa NE 6 km/h 6 km/h 75 % 0 mm 415.0 W/m2 CLR
12:46 -11 °C -13.5 °C 34875.8 hPa East 5.1 km/h 5.1 km/h 74 % 0 mm 468.0 W/m2 CLR
12:51 -10.7 °C -13.3 °C 34875.8 hPa East 6 km/h 6 km/h 73 % 0 mm 404.0 W/m2 CLR
12:56 -10.7 °C -13.3 °C 34875.8 hPa East 9 km/h 9 km/h 73 % 0 mm 246.0 W/m2 CLR
13:01 -11 °C -13.6 °C 34875.8 hPa East 9 km/h 9 km/h 73 % 0 mm 250.0 W/m2 CLR
13:06 -11 °C -13.5 °C 34875.8 hPa ENE 6 km/h 6 km/h 74 % 0 mm 295.0 W/m2 CLR
13:11 -11 °C -13.6 °C 34865.6 hPa ENE 7.7 km/h 7.7 km/h 73 % 0 mm 424.0 W/m2 CLR
13:16 -10.7 °C -13.2 °C 34865.6 hPa Calm     74 % 0 mm 645.0 W/m2 CLR
13:21 -10.4 °C -12.9 °C 34865.6 hPa East 7.7 km/h 7.7 km/h 74 % 0 mm 399.0 W/m2 CLR
13:26 -10.7 °C -13.4 °C 34865.6 hPa Calm     72 % 0 mm 315.0 W/m2 CLR
13:31 -10.4 °C -13.1 °C 34852.1 hPa ENE 3.1 km/h   72 % 0 mm 323.0 W/m2 CLR
13:36 -10.4 °C -13 °C 34852.1 hPa Calm     73 % 0 mm 404.0 W/m2 CLR
13:41 -10.4 °C -13.1 °C 34852.1 hPa ENE 3.1 km/h 3.1 km/h 72 % 0 mm 290.0 W/m2 CLR
13:46 -10.4 °C -13.1 °C 34841.9 hPa Calm     72 % 0 mm 346.0 W/m2 CLR
13:51 -10.4 °C -13.1 °C 34841.9 hPa ENE 9 km/h 9 km/h 72 % 0 mm 376.0 W/m2 CLR
13:56 -10.4 °C -13.1 °C 34841.9 hPa Calm     72 % 0 mm 309.0 W/m2 CLR
14:01 -10.4 °C -13.1 °C 34831.8 hPa Calm     72 % 0 mm 485.0 W/m2 CLR
14:06 -10.1 °C -12.8 °C 34831.8 hPa Calm     72 % 0 mm 483.0 W/m2 CLR
14:11 -10.1 °C -12.9 °C 34831.8 hPa Calm     71 % 0 mm 454.0 W/m2 CLR
14:16 -9.8 °C -12.7 °C 34818.2 hPa Calm     71 % 0 mm 464.0 W/m2 CLR
14:26 -9.8 °C -12.7 °C 34818.2 hPa Calm     70 % 0 mm 459.0 W/m2 CLR
14:31 -9.4 °C -12.6 °C 34818.2 hPa Calm     69 % 0 mm 450.0 W/m2 CLR
14:36 -9.1 °C -12.4 °C 34818.2 hPa Calm     68 % 0 mm 443.0 W/m2 CLR
14:41 -9.1 °C -12.6 °C 34818.2 hPa Calm     67 % 0 mm 434.0 W/m2 CLR
14:46 -9.1 °C -12.6 °C 34808.1 hPa ENE 3.1 km/h 3.1 km/h 67 % 0 mm 427.0 W/m2 CLR
14:51 -9.1 °C -12.7 °C 34808.1 hPa Calm     66 % 0 mm 420.0 W/m2 CLR
14:56 -9.1 °C -12.7 °C 34808.1 hPa Calm     66 % 0 mm 413.0 W/m2 CLR
15:01 -9.1 °C -12.7 °C 34808.1 hPa East 9 km/h 9 km/h 66 % 0 mm 404.0 W/m2 CLR
15:06 -9.1 °C -12.7 °C 34797.9 hPa ENE 10.3 km/h 10.3 km/h 66 % 0 mm 396.0 W/m2 CLR
15:11 -9.1 °C -12.7 °C 34797.9 hPa ENE 6 km/h 6 km/h 66 % 0 mm 387.0 W/m2 CLR
15:16 -9.1 °C -12.7 °C 34797.9 hPa NE 7.7 km/h 7.7 km/h 66 % 0 mm 378.0 W/m2 CLR
15:21 -9.1 °C -12.7 °C 34797.9 hPa East 11.9 km/h 11.9 km/h 66 % 0 mm 371.0 W/m2 CLR
15:31 -9.1 °C -12.7 °C 34797.9 hPa East 9 km/h 9 km/h 66 % 0 mm 350.0 W/m2 CLR
15:36 -9.1 °C -12.7 °C 34797.9 hPa Calm     66 % 0 mm 339.0 W/m2 CLR
15:41 -8.8 °C -12.3 °C 34784.4 hPa NE 6 km/h 6 km/h 66 % 0 mm 330.0 W/m2 CLR
15:46 -9.1 °C -12.8 °C 34797.9 hPa NE 6 km/h   65 % 0 mm 320.0 W/m2 CLR
15:51 -8.8 °C -12.5 °C 34784.4 hPa Calm     65 % 0 mm 308.0 W/m2 CLR
15:56 -9.1 °C -12.8 °C 34784.4 hPa Calm     65 % 0 mm 295.0 W/m2 CLR
16:06 -8.8 °C -12.6 °C 34784.4 hPa Calm     64 % 0 mm 274.0 W/m2 CLR
16:11 -8.8 °C -12.6 °C 34784.4 hPa Calm     64 % 0 mm 258.0 W/m2 CLR
16:16 -8.8 °C -12.7 °C 34784.4 hPa ESE 9 km/h 9 km/h 63 % 0 mm 244.0 W/m2 CLR
16:21 -8.8 °C -12.7 °C 34784.4 hPa SE 9 km/h 9 km/h 63 % 0 mm 232.0 W/m2 CLR
16:26 -8.8 °C -12.7 °C 34784.4 hPa East 9 km/h   63 % 0 mm 216.0 W/m2 CLR
16:31 -8.8 °C -12.7 °C 34784.4 hPa SE 6 km/h 6 km/h 63 % 0 mm 199.0 W/m2 CLR
16:47 -9.1 °C -13 °C 34784.4 hPa Calm     63 % 0 mm 155.0 W/m2 CLR
16:52 -9.1 °C -13 °C 34784.4 hPa Calm     63 % 0 mm 139.0 W/m2 CLR
16:57 -9.1 °C -13 °C 34784.4 hPa East 3.1 km/h 3.1 km/h 63 % 0 mm 125.0 W/m2 CLR
17:02 -9.4 °C -13.3 °C 34774.2 hPa SE 6 km/h 6 km/h 63 % 0 mm 111.0 W/m2 CLR
17:07 -9.4 °C -13.2 °C 34774.2 hPa Calm     64 % 0 mm 86.0 W/m2 CLR
17:12 -9.8 °C -13.5 °C 34784.4 hPa Calm     64 % 0 mm 49.0 W/m2 SCT
17:17 -9.8 °C -13.4 °C 34784.4 hPa East 7.7 km/h 7.7 km/h 65 % 0 mm 49.0 W/m2 SCT
17:27 -10.4 °C -13.8 °C 34784.4 hPa Calm     66 % 0 mm 35.0 W/m2 BKN
17:37 -11 °C -14.3 °C 34784.4 hPa ENE 6 km/h 6 km/h 67 % 0 mm 14.0 W/m2 BKN
17:42 -11 °C -14.2 °C 34784.4 hPa ENE 3.1 km/h 3.1 km/h 68 % 0 mm 12.0 W/m2 BKN
17:47 -11.3 °C -14.3 °C 34784.4 hPa Calm     69 % 0 mm 12.0 W/m2 BKN
17:52 -11.3 °C -14.2 °C 34784.4 hPa Calm     70 % 0 mm 11.0 W/m2 BKN
17:57 -11.6 °C -14.6 °C 34784.4 hPa Calm     70 % 0 mm 9.0 W/m2 BKN
18:07 -11.9 °C -14.6 °C 34784.4 hPa ENE 6 km/h 6 km/h 72 % 0 mm 0.0 W/m2 OVC
18:17 -12.6 °C -15.1 °C 34784.4 hPa Calm     73 % 0 mm 0.0 W/m2 CLR
18:27 -12.8 °C -15.3 °C 34784.4 hPa Calm     74 % 0 mm 0.0 W/m2 CLR
18:32 -12.8 °C -15.2 °C 34784.4 hPa Calm     75 % 0 mm 0.0 W/m2 CLR
18:37 -12.8 °C -15.1 °C 34784.4 hPa Calm     76 % 0 mm 0.0 W/m2 CLR
18:42 -12.8 °C -15.1 °C 34784.4 hPa Calm     76 % 0 mm 0.0 W/m2 CLR
18:52 -12.6 °C -14.9 °C 34797.9 hPa Calm     75 % 0 mm 0.0 W/m2 CLR
18:57 -12.6 °C -14.8 °C 34797.9 hPa Calm     76 % 0 mm 0.0 W/m2 CLR
19:02 -12.8 °C -14.9 °C 34797.9 hPa Calm     77 % 0 mm 0.0 W/m2 CLR
19:07 -12.8 °C -14.8 °C 34797.9 hPa Calm     78 % 0 mm 0.0 W/m2 CLR
19:12 -12.8 °C -14.7 °C 34797.9 hPa Calm     80 % 0 mm 0.0 W/m2 CLR
19:27 -13.4 °C -15.2 °C 34808.1 hPa Calm     81 % 0 mm 0.0 W/m2 CLR
19:37 -13.8 °C -15.2 °C 34808.1 hPa Calm     84 % 0 mm 0.0 W/m2 CLR
19:42 -13.8 °C -15.2 °C 34808.1 hPa Calm     84 % 0 mm 0.0 W/m2 CLR
19:47 -13.8 °C -15.2 °C 34797.9 hPa Calm     84 % 0 mm 0.0 W/m2 CLR
19:52 -14.1 °C -15.4 °C 34797.9 hPa Calm     85 % 0 mm 0.0 W/m2 CLR
19:57 -14.1 °C -15.4 °C 34797.9 hPa Calm     85 % 0 mm 0.0 W/m2 CLR
20:02 -14.4 °C -15.6 °C 34797.9 hPa Calm     86 % 0 mm 0.0 W/m2 CLR
20:07 -14.4 °C -15.6 °C 34797.9 hPa Calm     86 % 0 mm 0.0 W/m2 CLR
20:12 -14.4 °C -15.6 °C 34797.9 hPa Calm     86 % 0 mm 0.0 W/m2 CLR
20:17 -14.7 °C -15.8 °C 34797.9 hPa Calm     87 % 0 mm 0.0 W/m2 CLR
20:22 -15 °C -16.2 °C 34797.9 hPa Calm     86 % 0 mm 0.0 W/m2 CLR
20:37 -15 °C -16.1 °C 34797.9 hPa Calm     87 % 0 mm 0.0 W/m2 CLR
20:42 -15 °C -16.1 °C 34797.9 hPa Calm     87 % 0 mm 0.0 W/m2 CLR
20:47 -15 °C -16.1 °C 34797.9 hPa Calm     87 % 0 mm 0.0 W/m2 CLR
20:57 -15 °C -16 °C 34797.9 hPa Calm     88 % 0 mm 0.0 W/m2 CLR
21:02 -15 °C -16 °C 34797.9 hPa Calm     88 % 0 mm 0.0 W/m2 CLR
21:07 -15 °C -16 °C 34797.9 hPa Calm     88 % 0 mm 0.0 W/m2 CLR
21:12 -15.3 °C -16.3 °C 34797.9 hPa Calm     88 % 0 mm 0.0 W/m2 CLR
21:17 -15.3 °C -16.3 °C 34797.9 hPa Calm     88 % 0 mm 0.0 W/m2 CLR
21:22 -15.6 °C -16.6 °C 34797.9 hPa Calm     88 % 0 mm 0.0 W/m2 CLR
21:27 -15.6 °C -16.6 °C 34797.9 hPa Calm     88 % 0 mm 0.0 W/m2 CLR
21:32 -15.6 °C -16.6 °C 34797.9 hPa Calm     89 % 0 mm 0.0 W/m2 CLR
21:37 -15.9 °C -16.8 °C 34797.9 hPa Calm     89 % 0 mm 0.0 W/m2 CLR
21:42 -15.9 °C -16.8 °C 34797.9 hPa Calm     89 % 0 mm 0.0 W/m2 CLR
21:47 -15.9 °C -16.8 °C 34797.9 hPa Calm     89 % 0 mm 0.0 W/m2 CLR
21:52 -15.6 °C -16.6 °C 34797.9 hPa Calm     89 % 0 mm 0.0 W/m2 CLR
21:57 -15.6 °C -16.6 °C 34797.9 hPa Calm     89 % 0 mm 0.0 W/m2 CLR
22:02 -15.6 °C -16.4 °C 34797.9 hPa Calm     90 % 0 mm 0.0 W/m2 CLR
22:08 -15.6 °C -16.4 °C 34784.4 hPa Calm     90 % 0 mm 0.0 W/m2 CLR
22:13 -15.6 °C -16.6 °C 34797.9 hPa Calm     89 % 0 mm 0.0 W/m2 CLR
22:18 -15.6 °C -16.6 °C 34797.9 hPa Calm     89 % 0 mm 0.0 W/m2 CLR
22:23 -15.9 °C -16.8 °C 34797.9 hPa Calm     90 % 0 mm 0.0 W/m2 CLR
22:28 -15.9 °C -16.8 °C 34797.9 hPa Calm     90 % 0 mm 0.0 W/m2 CLR
22:33 -15.9 °C -16.8 °C 34797.9 hPa Calm     90 % 0 mm 0.0 W/m2 CLR
22:38 -15.9 °C -16.8 °C 34797.9 hPa Calm     90 % 0 mm 0.0 W/m2 CLR
22:43 -15.6 °C -16.4 °C 34797.9 hPa Calm     90 % 0 mm 0.0 W/m2 CLR
22:48 -15.6 °C -16.4 °C 34797.9 hPa Calm     90 % 0 mm 0.0 W/m2 CLR
22:53 -15.9 °C -16.8 °C 34797.9 hPa Calm     90 % 0 mm 0.0 W/m2 CLR
22:58 -15.9 °C -16.8 °C 34797.9 hPa Calm     90 % 0 mm 0.0 W/m2 CLR
23:03 -15.9 °C -16.8 °C 34797.9 hPa Calm     90 % 0 mm 0.0 W/m2 CLR
23:08 -16.2 °C -17.1 °C 34784.4 hPa Calm     90 % 0 mm 0.0 W/m2 CLR
23:13 -16.2 °C -17.1 °C 34797.9 hPa Calm     90 % 0 mm 0.0 W/m2 CLR
23:18 -16.2 °C -17.1 °C 34797.9 hPa Calm     90 % 7.62 mm 0.0 W/m2 RA
23:23 -16.2 °C -17 °C 34797.9 hPa Calm     91 % 7.62 mm 0.0 W/m2 CLR
23:28 -16.2 °C -17 °C 34797.9 hPa Calm     91 % 7.62 mm 0.0 W/m2 CLR
23:33 -16.6 °C -17.3 °C 34797.9 hPa Calm     91 % 7.62 mm 0.0 W/m2 CLR
23:38 -16.6 °C -17.3 °C 34797.9 hPa Calm     91 % 7.62 mm 0.0 W/m2 CLR
23:43 -16.6 °C -17.3 °C 34797.9 hPa Calm     91 % 7.62 mm 0.0 W/m2 CLR
23:48 -16.8 °C -17.6 °C 34797.9 hPa Calm     91 % 7.62 mm 0.0 W/m2 CLR
23:53 -16.8 °C -17.6 °C 34797.9 hPa Calm     91 % 7.62 mm 0.0 W/m2 CLR
23:58 -16.8 °C -17.6 °C 34797.9 hPa Calm     91 % 7.62 mm 0.0 W/m2 CLR
Lo Temps de Massalio
Compliments of Weather Underground - 1 mb